createdAt,value
2022-10-15T00:01:26.552Z,67.09
2022-10-15T00:03:54.620Z,62.65
2022-10-15T00:06:22.493Z,57.32
2022-10-15T00:08:50.041Z,55.06
2022-10-15T00:11:21.004Z,56.02
2022-10-15T00:13:49.218Z,58.01
2022-10-15T00:16:19.720Z,61.18
2022-10-15T00:18:48.613Z,64.67
2022-10-15T00:21:18.242Z,63.08
2022-10-15T00:23:47.493Z,61.83
2022-10-15T00:26:18.296Z,56.62
2022-10-15T00:28:46.212Z,54.78
2022-10-15T00:31:16.831Z,56.83
2022-10-15T00:33:50.129Z,58.20
2022-10-15T00:36:20.523Z,61.08
2022-10-15T00:38:49.441Z,65.17
2022-10-15T00:41:19.662Z,61.52
2022-10-15T00:43:48.801Z,57.18
2022-10-15T00:46:35.202Z,57.87
2022-10-15T00:49:37.405Z,61.19
2022-10-15T00:52:07.703Z,64.75
2022-10-15T00:54:47.871Z,62.60
2022-10-15T00:57:16.578Z,57.45
2022-10-15T00:59:54.217Z,57.36
2022-10-15T01:02:22.122Z,60.99
2022-10-15T01:04:51.248Z,64.39
2022-10-15T01:07:19.103Z,61.86
2022-10-15T01:09:47.145Z,57.77
2022-10-15T01:12:52.351Z,59.29
2022-10-15T01:15:28.720Z,64.29
2022-10-15T01:17:59.690Z,63.13
2022-10-15T01:20:55.130Z,58.31
2022-10-15T01:24:00.465Z,57.46
2022-10-15T01:26:56.296Z,60.28
2022-10-15T01:29:56.257Z,64.78
2022-10-15T01:32:35.929Z,61.20
2022-10-15T01:35:20.775Z,57.64
2022-10-15T01:38:33.427Z,55.88
2022-10-15T01:41:04.563Z,59.52
2022-10-15T01:44:00.258Z,62.16
2022-10-15T01:47:01.308Z,65.06
2022-10-15T01:49:33.279Z,58.74
2022-10-15T01:52:09.870Z,58.56
2022-10-15T01:54:38.486Z,61.26
2022-10-15T01:57:07.672Z,64.51
2022-10-15T01:59:36.067Z,61.26
2022-10-15T02:02:03.606Z,58.08
2022-10-15T02:04:32.962Z,59.90
2022-10-15T02:07:13.792Z,63.45
2022-10-15T02:09:57.169Z,63.76
2022-10-15T02:12:46.909Z,59.92
2022-10-15T02:15:30.869Z,58.18
2022-10-15T02:18:11.261Z,62.92
2022-10-15T02:21:10.173Z,62.59
2022-10-15T02:23:53.337Z,58.99
2022-10-15T02:26:27.925Z,60.95
2022-10-15T02:28:59.495Z,64.11
2022-10-15T02:31:31.813Z,61.49
2022-10-15T02:34:06.565Z,57.90
2022-10-15T02:36:34.797Z,58.36
2022-10-15T02:39:07.307Z,61.76
2022-10-15T02:41:35.303Z,65.01
2022-10-15T02:44:03.795Z,62.91
2022-10-15T02:46:31.607Z,59.13
2022-10-15T02:48:59.136Z,57.33
2022-10-15T02:51:27.113Z,59.58
2022-10-15T02:53:54.684Z,63.86
2022-10-15T02:56:22.251Z,61.20
2022-10-15T02:58:49.787Z,58.07
2022-10-15T03:01:19.404Z,59.60
2022-10-15T03:03:48.417Z,63.50
2022-10-15T03:06:16.363Z,63.97
2022-10-15T03:08:44.440Z,60.12
2022-10-15T03:11:12.240Z,57.86
2022-10-15T03:13:40.955Z,61.11
2022-10-15T03:16:10.041Z,64.01
2022-10-15T03:18:40.619Z,60.32
2022-10-15T03:21:09.609Z,58.71
2022-10-15T03:23:37.261Z,60.05
2022-10-15T03:26:12.686Z,63.95
2022-10-15T03:28:40.748Z,61.31
2022-10-15T03:31:08.323Z,58.37
2022-10-15T03:33:35.860Z,59.39
2022-10-15T03:36:03.669Z,62.77
2022-10-15T03:38:32.592Z,63.33
2022-10-15T03:41:00.273Z,59.64
2022-10-15T03:43:37.501Z,59.98
2022-10-15T03:46:08.139Z,63.77
2022-10-15T03:48:38.712Z,62.08
2022-10-15T03:51:06.204Z,59.47
2022-10-15T03:53:34.593Z,58.14
2022-10-15T03:56:06.330Z,62.34
2022-10-15T03:58:34.853Z,63.76
2022-10-15T04:01:17.714Z,59.22
2022-10-15T04:03:45.818Z,60.06
2022-10-15T04:06:14.358Z,63.38
2022-10-15T04:08:42.097Z,63.40
2022-10-15T04:11:21.839Z,59.65
2022-10-15T04:13:57.324Z,60.74
2022-10-15T04:16:24.980Z,64.20
2022-10-15T04:18:52.508Z,60.92
2022-10-15T04:21:21.578Z,58.43
2022-10-15T04:23:52.040Z,61.43
2022-10-15T04:26:26.838Z,63.16
2022-10-15T04:28:54.530Z,60.89
2022-10-15T04:31:23.364Z,57.68
2022-10-15T04:33:51.079Z,59.86
2022-10-15T04:36:18.767Z,64.26
2022-10-15T04:38:53.003Z,62.42
2022-10-15T04:41:30.940Z,58.97
2022-10-15T04:44:02.497Z,61.83
2022-10-15T04:46:30.965Z,64.09
2022-10-15T04:49:00.781Z,61.20
2022-10-15T04:51:29.318Z,58.82
2022-10-15T04:54:29.214Z,60.18
2022-10-15T04:56:59.304Z,64.34
2022-10-15T04:59:27.925Z,61.77
2022-10-15T05:02:18.794Z,59.12
2022-10-15T05:04:49.851Z,61.53
2022-10-15T05:07:17.742Z,63.19
2022-10-15T05:09:46.638Z,60.07
2022-10-15T05:12:14.611Z,58.98
2022-10-15T05:14:42.358Z,60.89
2022-10-15T05:17:15.260Z,63.98
2022-10-15T05:19:43.634Z,60.98
2022-10-15T05:22:17.287Z,58.69
2022-10-15T05:24:50.804Z,62.34
2022-10-15T05:27:32.371Z,63.07
2022-10-15T05:30:00.655Z,59.27
2022-10-15T05:32:42.095Z,60.19
2022-10-15T05:35:12.086Z,63.23
2022-10-15T05:37:52.929Z,63.56
2022-10-15T05:40:22.061Z,59.11
2022-10-15T05:43:10.199Z,60.70
2022-10-15T05:45:37.731Z,63.89
2022-10-15T05:48:07.145Z,62.48
2022-10-15T05:50:35.302Z,59.92
2022-10-15T05:53:05.187Z,57.08
2022-10-15T05:56:00.680Z,60.47
2022-10-15T05:58:37.175Z,63.68
2022-10-15T06:01:08.534Z,60.46
2022-10-15T06:03:40.977Z,57.62
2022-10-15T06:06:26.279Z,60.26
2022-10-15T06:08:54.957Z,64.02
2022-10-15T06:11:22.598Z,60.42
2022-10-15T06:13:50.581Z,58.61
2022-10-15T06:16:22.585Z,60.69
2022-10-15T06:18:53.791Z,63.65
2022-10-15T06:21:21.801Z,60.08
2022-10-15T06:23:49.948Z,59.01
2022-10-15T06:26:17.678Z,62.03
2022-10-15T06:28:48.735Z,63.41
2022-10-15T06:31:16.415Z,58.85
2022-10-15T06:33:43.981Z,58.30
2022-10-15T06:36:13.706Z,60.98
2022-10-15T06:38:44.186Z,62.92
2022-10-15T06:41:12.046Z,59.83
2022-10-15T06:43:39.641Z,57.96
2022-10-15T06:46:07.446Z,59.88
2022-10-15T06:48:35.376Z,63.04
2022-10-15T06:51:04.619Z,60.15
2022-10-15T06:53:33.121Z,57.89
2022-10-15T06:56:02.631Z,60.00
2022-10-15T06:58:34.463Z,62.96
2022-10-15T07:01:03.922Z,59.37
2022-10-15T07:03:32.447Z,57.88
2022-10-15T07:06:04.616Z,59.06
2022-10-15T07:08:33.106Z,60.51
2022-10-15T07:11:07.011Z,61.87
2022-10-15T07:13:35.527Z,62.05
2022-10-15T07:16:05.902Z,62.06
2022-10-15T07:18:34.933Z,55.82
2022-10-15T07:21:05.122Z,55.80
2022-10-15T07:23:33.124Z,57.67
2022-10-15T07:26:01.192Z,59.03
2022-10-15T07:28:28.787Z,59.58
2022-10-15T07:31:01.532Z,59.33
2022-10-15T07:33:29.033Z,59.79
2022-10-15T07:36:04.780Z,59.97
2022-10-15T07:38:33.521Z,59.24
2022-10-15T07:41:02.846Z,59.32
2022-10-15T07:43:34.392Z,58.98
2022-10-15T07:46:02.408Z,58.20
2022-10-15T07:48:30.672Z,57.31
2022-10-15T07:51:06.142Z,56.57
2022-10-15T07:53:34.633Z,55.43
2022-10-15T07:56:06.280Z,55.28
2022-10-15T07:58:35.911Z,52.80
2022-10-15T08:01:08.245Z,51.87
2022-10-15T08:03:37.008Z,51.09
2022-10-15T08:06:07.329Z,50.64
2022-10-15T08:08:36.181Z,50.49
2022-10-15T08:11:08.753Z,49.43
2022-10-15T08:13:41.652Z,50.51
2022-10-15T08:16:11.035Z,50.92
2022-10-15T08:18:38.949Z,49.19
2022-10-15T08:21:07.925Z,48.72
2022-10-15T08:23:35.815Z,45.65
2022-10-15T08:26:04.372Z,44.36
2022-10-15T08:28:33.745Z,42.60
2022-10-15T08:31:05.400Z,44.01
2022-10-15T08:33:35.726Z,42.91
2022-10-15T08:36:07.847Z,42.46
2022-10-15T08:38:35.763Z,41.40
2022-10-15T08:41:14.220Z,40.79
2022-10-15T08:43:43.621Z,40.92
2022-10-15T08:46:25.274Z,41.33
2022-10-15T08:48:59.519Z,40.97
2022-10-15T08:51:42.101Z,39.78
2022-10-15T08:54:15.848Z,39.30
2022-10-15T08:57:01.141Z,39.70
2022-10-15T08:59:34.584Z,39.13
2022-10-15T09:02:13.841Z,40.45
2022-10-15T09:04:55.940Z,42.08
2022-10-15T09:07:35.189Z,42.81
2022-10-15T09:10:18.046Z,43.53
2022-10-15T09:13:12.529Z,44.51
2022-10-15T09:15:51.724Z,45.97
2022-10-15T09:18:25.002Z,47.30
2022-10-15T09:20:53.790Z,48.28
2022-10-15T09:23:25.693Z,49.35
2022-10-15T09:26:13.925Z,49.94
2022-10-15T09:28:56.985Z,50.17
2022-10-15T09:31:31.876Z,50.38
2022-10-15T09:34:14.629Z,50.84
2022-10-15T09:36:52.417Z,51.49
2022-10-15T09:39:30.808Z,52.52
2022-10-15T09:42:19.598Z,53.86
2022-10-15T09:44:47.695Z,54.71
2022-10-15T09:47:30.907Z,55.75
2022-10-15T09:50:01.970Z,56.17
2022-10-15T09:52:56.369Z,56.44
2022-10-15T09:55:26.830Z,56.18
2022-10-15T09:57:59.377Z,55.95
2022-10-15T10:00:55.911Z,55.34
2022-10-15T10:03:26.854Z,54.42
2022-10-15T10:06:04.473Z,53.48
2022-10-15T10:09:14.537Z,52.39
2022-10-15T10:11:53.564Z,48.71
2022-10-15T10:14:24.262Z,46.63
2022-10-15T10:17:18.012Z,45.85
2022-10-15T10:20:04.757Z,46.68
2022-10-15T10:22:50.421Z,47.06
2022-10-15T10:25:37.512Z,46.54
2022-10-15T10:28:14.444Z,44.81
2022-10-15T10:30:54.209Z,43.81
2022-10-15T10:33:27.686Z,43.06
2022-10-15T10:35:56.343Z,41.01
2022-10-15T10:38:31.529Z,40.89
2022-10-15T10:41:06.794Z,39.73
2022-10-15T10:43:39.235Z,39.28
2022-10-15T10:46:14.650Z,39.23
2022-10-15T10:48:52.702Z,39.25
2022-10-15T10:51:26.711Z,39.16
2022-10-15T10:54:00.333Z,37.80
2022-10-15T10:56:34.354Z,37.55
2022-10-15T10:59:13.577Z,36.97
2022-10-15T11:01:42.687Z,38.05
2022-10-15T11:04:25.116Z,38.72
2022-10-15T11:07:06.961Z,39.34
2022-10-15T11:09:47.935Z,39.68
2022-10-15T11:12:34.781Z,40.77
2022-10-15T11:15:20.546Z,42.35
2022-10-15T11:18:03.515Z,43.82
2022-10-15T11:20:59.726Z,44.72
2022-10-15T11:24:01.290Z,45.76
2022-10-15T11:27:06.388Z,44.73
2022-10-15T11:30:04.968Z,44.57
2022-10-15T11:33:07.753Z,43.64
2022-10-15T11:35:53.792Z,44.36
2022-10-15T11:38:27.577Z,44.66
2022-10-15T11:41:13.711Z,44.40
2022-10-15T11:44:06.277Z,44.64
2022-10-15T11:46:46.865Z,43.88
2022-10-15T11:49:40.593Z,44.33
2022-10-15T11:52:33.776Z,44.90
2022-10-15T11:55:14.022Z,45.33
2022-10-15T11:57:43.353Z,45.89
2022-10-15T12:00:39.698Z,46.31
2022-10-15T12:03:16.756Z,46.22
2022-10-15T12:05:54.693Z,46.48
2022-10-15T12:08:33.770Z,47.26
2022-10-15T12:11:24.673Z,47.71
2022-10-15T12:14:01.070Z,48.21
2022-10-15T12:16:39.436Z,48.45
2022-10-15T12:21:40.413Z,48.91
2022-10-15T12:24:40.836Z,48.96
2022-10-15T12:35:33.222Z,50.58
2022-10-15T12:38:27.105Z,50.19
2022-10-15T12:41:16.444Z,50.25
2022-10-15T12:43:47.741Z,50.27
2022-10-15T12:46:14.134Z,50.62
2022-10-15T12:48:43.646Z,50.98
2022-10-15T12:51:34.260Z,51.24
2022-10-15T12:54:01.719Z,51.39
2022-10-15T12:56:41.916Z,51.62
2022-10-15T12:59:30.147Z,52.15
2022-10-15T13:01:59.278Z,52.25
2022-10-15T13:04:37.505Z,52.48
2022-10-15T13:07:05.616Z,52.38
2022-10-15T13:09:31.880Z,52.48
2022-10-15T13:12:00.173Z,52.64
2022-10-15T13:14:47.851Z,52.63
2022-10-15T13:17:20.841Z,52.71
2022-10-15T13:19:55.833Z,52.74
2022-10-15T13:22:26.154Z,52.97
2022-10-15T13:24:52.716Z,53.17
2022-10-15T13:27:25.107Z,53.29
2022-10-15T13:30:00.469Z,53.54
2022-10-15T13:32:28.520Z,53.91
2022-10-15T13:34:56.819Z,53.95
2022-10-15T13:37:33.504Z,54.08
2022-10-15T13:40:06.558Z,54.22
2022-10-15T13:42:34.913Z,54.21
2022-10-15T13:45:16.661Z,54.29
2022-10-15T13:47:52.333Z,54.34
2022-10-15T13:50:25.606Z,54.53
2022-10-15T13:52:54.434Z,54.58
2022-10-15T13:55:24.501Z,54.71
2022-10-15T13:57:56.369Z,54.84
2022-10-15T14:00:26.328Z,55.10
2022-10-15T14:03:22.132Z,55.43
2022-10-15T14:05:50.900Z,55.84
2022-10-15T14:08:23.080Z,56.02
2022-10-15T14:10:51.645Z,56.08
2022-10-15T14:13:18.208Z,56.40
2022-10-15T14:16:21.647Z,56.56
2022-10-15T14:19:07.975Z,56.60
2022-10-15T14:21:35.474Z,56.94
2022-10-15T14:24:14.265Z,56.91
2022-10-15T14:26:41.740Z,56.98
2022-10-15T14:29:36.408Z,57.31
2022-10-15T14:32:18.800Z,57.14
2022-10-15T14:34:45.072Z,57.16
2022-10-15T14:37:43.378Z,57.56
2022-10-15T14:40:20.795Z,57.33
2022-10-15T14:43:06.740Z,57.36
2022-10-15T14:45:56.513Z,57.49
2022-10-15T14:48:26.505Z,57.51
2022-10-15T14:51:00.527Z,57.92
2022-10-15T14:53:31.130Z,58.02
2022-10-15T14:56:01.294Z,58.32
2022-10-15T14:58:29.441Z,58.73
2022-10-15T15:01:01.150Z,58.74
2022-10-15T15:03:38.309Z,58.58
2022-10-15T15:06:04.868Z,58.65
2022-10-15T15:08:31.492Z,59.05
2022-10-15T15:11:00.994Z,59.68
2022-10-15T15:13:30.312Z,59.98
2022-10-15T15:15:56.815Z,60.04
2022-10-15T15:18:23.132Z,60.15
2022-10-15T15:20:50.576Z,60.21
2022-10-15T15:23:23.354Z,60.60
2022-10-15T15:25:51.981Z,60.55
2022-10-15T15:28:21.440Z,60.50
2022-10-15T15:30:57.293Z,60.88
2022-10-15T15:33:24.091Z,60.83
2022-10-15T15:35:54.072Z,61.02
2022-10-15T15:38:23.228Z,61.19
2022-10-15T15:40:50.731Z,61.30
2022-10-15T15:43:18.326Z,62.05
2022-10-15T15:45:46.407Z,62.04
2022-10-15T15:48:13.516Z,65.67
2022-10-15T15:50:41.018Z,63.31
2022-10-15T15:53:20.858Z,55.57
2022-10-15T15:55:48.663Z,53.10
2022-10-15T15:58:14.855Z,53.50
2022-10-15T16:00:41.373Z,54.55
2022-10-15T16:03:15.504Z,55.29
2022-10-15T16:05:41.981Z,56.35
2022-10-15T16:08:10.822Z,57.22
2022-10-15T16:10:36.974Z,57.63
2022-10-15T16:13:04.074Z,58.47
2022-10-15T16:15:30.329Z,58.90
2022-10-15T16:17:57.007Z,59.48
2022-10-15T16:20:23.978Z,59.82
2022-10-15T16:22:53.074Z,60.32
2022-10-15T16:25:21.450Z,59.72
2022-10-15T16:27:51.010Z,60.60
2022-10-15T16:30:18.513Z,61.25
2022-10-15T16:32:45.909Z,65.97
2022-10-15T16:35:12.110Z,64.16
2022-10-15T16:37:38.685Z,58.66
2022-10-15T16:40:05.500Z,54.84
2022-10-15T16:42:31.691Z,55.24
2022-10-15T16:44:57.921Z,56.38
2022-10-15T16:47:24.316Z,57.65
2022-10-15T16:49:50.813Z,59.08
2022-10-15T16:52:17.082Z,59.76
2022-10-15T16:54:43.600Z,60.68
2022-10-15T16:57:09.842Z,65.16
2022-10-15T16:59:36.082Z,64.17
2022-10-15T17:02:02.509Z,58.46
2022-10-15T17:04:28.971Z,54.49
2022-10-15T17:06:55.455Z,55.08
2022-10-15T17:09:22.964Z,56.35
2022-10-15T17:11:49.268Z,57.34
2022-10-15T17:14:17.604Z,58.76
2022-10-15T17:16:49.367Z,60.19
2022-10-15T17:19:18.965Z,61.04
2022-10-15T17:21:47.286Z,65.80
2022-10-15T17:24:15.617Z,64.82
2022-10-15T17:26:43.284Z,58.77
2022-10-15T17:29:12.915Z,54.40
2022-10-15T17:31:39.083Z,54.90
2022-10-15T17:34:09.372Z,56.55
2022-10-15T17:36:42.139Z,58.53
2022-10-15T17:39:09.618Z,59.63
2022-10-15T17:41:35.899Z,61.00
2022-10-15T17:44:02.711Z,64.72
2022-10-15T17:46:30.103Z,63.31
2022-10-15T17:48:57.746Z,56.83
2022-10-15T17:51:29.099Z,55.36
2022-10-15T17:53:58.229Z,56.03
2022-10-15T17:56:33.052Z,57.25
2022-10-15T17:59:00.994Z,58.35
2022-10-15T18:01:39.446Z,60.60
2022-10-15T18:04:12.507Z,60.92
2022-10-15T18:06:42.977Z,66.19
2022-10-15T18:09:12.435Z,64.63
2022-10-15T18:11:38.661Z,57.94
2022-10-15T18:14:04.877Z,53.77
2022-10-15T18:23:19.271Z,59.35
2022-10-15T18:25:47.263Z,59.90
2022-10-15T18:28:16.549Z,60.58
2022-10-15T18:30:44.717Z,66.37
2022-10-15T18:33:13.955Z,63.59
2022-10-15T18:35:41.457Z,58.53
2022-10-15T18:38:08.947Z,53.73
2022-10-15T18:40:41.070Z,54.35
2022-10-15T18:43:08.786Z,56.01
2022-10-15T18:45:36.948Z,57.68
2022-10-15T18:48:04.589Z,59.15
2022-10-15T18:50:32.541Z,60.42
2022-10-15T18:53:03.104Z,65.29
2022-10-15T18:55:32.088Z,64.41
2022-10-15T18:58:01.792Z,57.82
2022-10-15T19:00:31.524Z,54.50
2022-10-15T19:02:59.860Z,55.25
2022-10-15T19:05:27.504Z,56.84
2022-10-15T19:07:55.668Z,58.65
2022-10-15T19:10:23.647Z,59.75
2022-10-15T19:12:53.469Z,61.12
2022-10-15T19:15:22.959Z,66.43
2022-10-15T19:17:50.487Z,64.59
2022-10-15T19:20:18.091Z,57.84
2022-10-15T19:22:46.757Z,54.61
2022-10-15T19:25:14.287Z,55.56
2022-10-15T19:27:42.729Z,56.85
2022-10-15T19:30:10.774Z,58.42
2022-10-15T19:32:38.549Z,59.43
2022-10-15T19:35:06.736Z,60.34
2022-10-15T19:37:34.703Z,60.77
2022-10-15T19:40:02.344Z,65.87
2022-10-15T19:42:30.392Z,64.35
2022-10-15T19:44:57.983Z,58.05
2022-10-15T19:47:25.734Z,54.11
2022-10-15T19:49:55.041Z,54.95
2022-10-15T19:52:22.905Z,56.44
2022-10-15T19:54:51.884Z,57.52
2022-10-15T19:57:19.552Z,58.84
2022-10-15T19:59:47.999Z,59.64
2022-10-15T20:02:16.419Z,60.74
2022-10-15T20:04:43.917Z,65.36
2022-10-15T20:07:11.619Z,63.97
2022-10-15T20:09:39.144Z,57.41
2022-10-15T20:12:07.366Z,54.30
2022-10-15T20:14:34.986Z,55.47
2022-10-15T20:17:03.571Z,57.01
2022-10-15T20:19:31.158Z,58.19
2022-10-15T20:21:58.769Z,59.65
2022-10-15T20:24:26.451Z,60.74
2022-10-15T20:26:54.264Z,65.46
2022-10-15T20:29:22.000Z,63.48
2022-10-15T20:31:51.303Z,58.95
2022-10-15T20:34:19.462Z,54.91
2022-10-15T20:36:52.118Z,55.17
2022-10-15T20:39:20.873Z,57.82
2022-10-15T20:41:48.607Z,59.15
2022-10-15T20:44:17.386Z,60.53
2022-10-15T20:46:53.426Z,61.76
2022-10-15T20:49:35.325Z,66.30
2022-10-15T20:52:03.972Z,63.88
2022-10-15T20:54:32.099Z,57.34
2022-10-15T20:56:59.955Z,54.96
2022-10-15T20:59:30.189Z,55.69
2022-10-15T21:01:58.444Z,56.79
2022-10-15T21:04:26.021Z,58.25
2022-10-15T21:06:53.643Z,59.84
2022-10-15T21:09:21.217Z,60.63
2022-10-15T21:11:48.725Z,65.04
2022-10-15T21:14:16.272Z,64.03
2022-10-15T21:16:43.849Z,58.60
2022-10-15T21:19:11.485Z,54.14
2022-10-15T21:21:39.605Z,54.19
2022-10-15T21:24:07.184Z,55.79
2022-10-15T21:26:34.904Z,57.02
2022-10-15T21:29:02.923Z,57.95
2022-10-15T21:31:30.737Z,59.43
2022-10-15T21:33:58.444Z,60.45
2022-10-15T21:36:27.655Z,61.50
2022-10-15T21:39:03.752Z,65.89
2022-10-15T21:41:33.473Z,63.29
2022-10-15T21:44:02.083Z,56.63
2022-10-15T21:46:32.583Z,54.56
2022-10-15T21:49:01.063Z,55.08
2022-10-15T21:51:33.700Z,56.19
2022-10-15T21:54:02.900Z,57.45
2022-10-15T21:56:31.768Z,58.72
2022-10-15T21:58:59.751Z,59.64
2022-10-15T22:01:32.995Z,60.78
2022-10-15T22:04:03.043Z,65.64
2022-10-15T22:06:32.169Z,64.04
2022-10-15T22:08:59.994Z,57.40
2022-10-15T22:11:34.367Z,53.97
2022-10-15T22:14:04.653Z,54.18
2022-10-15T22:16:34.618Z,55.02
2022-10-15T22:19:02.287Z,56.30
2022-10-15T22:21:32.603Z,57.98
2022-10-15T22:24:02.519Z,58.88
2022-10-15T22:26:34.617Z,59.62
2022-10-15T22:29:04.080Z,60.35
2022-10-15T22:31:32.039Z,61.27
2022-10-15T22:33:59.769Z,65.62
2022-10-15T22:36:31.298Z,63.26
2022-10-15T22:39:07.879Z,55.43
2022-10-15T22:41:39.842Z,53.46
2022-10-15T22:44:09.893Z,54.39
2022-10-15T22:46:39.236Z,55.85
2022-10-15T22:49:07.814Z,56.74
2022-10-15T22:51:35.682Z,56.00
2022-10-15T22:54:03.498Z,58.44
2022-10-15T22:56:31.660Z,59.23
2022-10-15T22:59:00.223Z,60.22
2022-10-15T23:01:30.650Z,60.99
2022-10-15T23:04:01.584Z,65.63
2022-10-15T23:06:30.918Z,65.27
2022-10-15T23:08:58.741Z,58.79
2022-10-15T23:11:33.859Z,54.27
2022-10-15T23:14:04.361Z,53.36
2022-10-15T23:16:35.570Z,54.77
2022-10-15T23:19:05.565Z,55.99
2022-10-15T23:21:36.886Z,57.27
2022-10-15T23:24:06.276Z,58.51
2022-10-15T23:26:34.221Z,59.79
2022-10-15T23:29:04.044Z,60.21
2022-10-15T23:31:34.561Z,61.18
2022-10-15T23:34:03.606Z,65.24
2022-10-15T23:36:32.795Z,63.96
2022-10-15T23:39:03.685Z,57.22
2022-10-15T23:41:31.747Z,53.80
2022-10-15T23:43:59.837Z,54.07
2022-10-15T23:46:27.424Z,55.57
2022-10-15T23:48:54.928Z,56.71
2022-10-15T23:51:30.256Z,58.54
2022-10-15T23:53:59.254Z,58.52
2022-10-15T23:56:27.194Z,58.88
2022-10-15T23:58:57.126Z,59.93
